AirNav   Bose A20 Aviation Headset
 
 1048 users online  

KCC Coffman Cove Seaplane Base
Coffman Cove, Alaska, USA


FAA INFORMATION EFFECTIVE 11 OCTOBER 2018

Location

FAA Identifier: KCC
Lat/Long: 56-00-53.2940N / 132-50-02.1210W
56-00.888233N / 132-50.035350W
56.0148039 / -132.8339225
(estimated)
Elevation: 0 ft. / 0 m (estimated)
Variation: 26E (1985)
Time zone: UTC -8 (UTC -9 during Standard Time)
Zip code: 99918

Seaplane Base Operations

Seaplane Base use: Open to the public
Activation date: 01/1966
Control tower: no
ARTCC: ANCHORAGE CENTER
FSS: KETCHIKAN FLIGHT SERVICE STATION [907-225-9481]
Alternate FSS: JNU JUNEAU FLIGHT SERVICE STATION [1-866-297-2236]
NOTAMs facility: KTN (NOTAM-D service available)
Attendance: UNATNDD
Wind indicator: yes
Segmented circle: no

Seaplane Base Communications

CTAF: 122.9

Nearby radio navigation aids

VOR radial/distance  VOR name  Freq  Var
LVDr143/28.4LEVEL ISLAND VOR/DME116.5020E

 
NDB name  Hdg/Dist  Freq  Var  ID
KLAWOCK357/28.022920EAKW .- -.- .--
SUMNER STRAIT142/28.452920ESQM ... --.- --

Seaplane Base Services

Parking: tiedowns
Airframe service: NONE
Powerplant service: NONE
Bottled oxygen: NONE
Bulk oxygen: NONE

Runway Information

Runway N/S

Dimensions: 5000 x 2000 ft. / 1524 x 610 m
NARROW CHANNEL AT LOW TIDE.
Surface: water
RUNWAY N  RUNWAY S
Elevation: 0.0 ft.0.0 ft.
Traffic pattern: leftleft

Seaplane Base Ownership and Management from official FAA records

Ownership: Publicly-owned
Owner: ALASKA DOT&PF SOUTHCOAST REGION
PO BOX 112506
JUNEAU, AK 99811-2506
Phone 907-465-1786
Manager: TIM LACOUR
P.O. BOX 549
KLAWOCK, AK 99925-0549
Phone 907-755-2229

Seaplane Base Operational Statistics

Aircraft operations: avg 40/month *
84% air taxi
16% transient general aviation
* for 12-month period ending 31 December 2017

Additional Remarks

SPB FLOAT/RAMP BTN ALASKA MARINE FERRY TERMINAL AND BOAT HARBOR.
WX CAMERA AVBL ON INTERNET AT HTTP://AVCAMS.FAA.GOV

Instrument Procedures

There are no published instrument procedures at KCC.

Some nearby airports with instrument procedures:

PAKW - Klawock Airport (27 nm S)
PAWG - Wrangell Airport (32 nm NE)
PAPG - Petersburg James A Johnson Airport (47 nm N)
PAKT - Ketchikan International Airport (55 nm SE)
PAFE - Kake Airport (67 nm NW)
 
Loc | Ops | Rwys | IFR | FBO | Links
Com | Nav | Svcs | Stats | Notes

Crowley
 
Area around KCC (Coffman Cove Seaplane Base)
 
Road maps at: MapQuest Bing Google
 
Aerial photo
No photo
 
Sectional chart

 
Airport distance calculator
Flying to Coffman Cove Seaplane Base? Find the distance to fly.

From to KCC

Sunrise and sunset
Times for 18-Oct-2018
 Local
(UTC-8)
 Zulu
(UTC)
Morning civil twilight06:5214:52
Sunrise07:3015:30
Sunset17:4301:43
Evening civil twilight18:2102:21

Current date and time
Zulu (UTC)  18-Oct-2018 23:33:03
Local (UTC-8)  18-Oct-2018 15:33:03
 
METAR
PAKW 
27nm S 
182253Z AUTO 03004KT 10SM CLR 11/09 A3013 RMK AO2 SLP203 T01060089 TSNO
PAWG 
32nm NE 
182255Z 34003KT 10SM FEW005 OVC100 08/07 A3019
PAPG 
48nm N 
182256Z 07004KT 7SM BCFG SCT002 08/08 A3018 RMK AO2 SLP225 T00780078
PAHY 
49nm S 
182156Z AUTO VRB03KT 10SM FEW005 09/08 A3017 RMK AO2 SLP316 T00940083 PNO $
TAF
PAKW 
27nm S 
181722Z 1818/1918 05006KT P6SM FEW010 BKN150 FM190300 06010KT P6SM VCSH SCT030 OVC050 WS020/13030KT FM190900 12010KT P6SM -RA SCT030 OVC050 WS020/14040KT FM191400 14015G25KT 4SM +RA BKN015 OVC025 WS020/15050KT AMD LTD TO CLD VIS AND WIND
PAWG 
32nm NE 
181722Z 1818/1918 08008KT P6SM FEW001 BKN050 FM190500 10010KT P6SM -RA BKN035 OVC060 FM190800 09015G25KT 5SM -RA BR SCT025 OVC040 WS020/12030KT FM191500 11020G35KT 4SM RA BR BKN025 OVC040 WS020/14040KT AMD LTD TO CLD VIS AND WIND 1906/1915
NOTAMs
Click for the latest NOTAMs
NOTAMs are issued by the DoD/FAA and will open in a separate window not controlled by AirNav.

 

 
 

Would you like to see your business listed on this page?

 If your business provides an interesting product or service to pilots, flight crews, aircraft, or users of the Coffman Cove Seaplane Base, you should consider listing it here.  To start the listing process, click on the button below
 
Add a business
 

Other Pages about Coffman Cove Seaplane Base

Update a link
 
Copyright © AirNav, LLC. All rights reserved. Privacy Policy  Contact